createdAt,value
2018-08-10T00:00:02.676Z,0
2018-08-10T00:01:02.935Z,0
2018-08-10T00:02:02.922Z,0
2018-08-10T00:03:02.928Z,0
2018-08-10T00:04:02.925Z,0
2018-08-10T00:05:02.663Z,0
2018-08-10T00:06:02.408Z,0
2018-08-10T00:07:02.664Z,0
2018-08-10T00:08:02.924Z,0
2018-08-10T00:09:02.856Z,0
2018-08-10T00:10:02.907Z,0
2018-08-10T00:11:02.660Z,0
2018-08-10T00:12:02.908Z,0
2018-08-10T00:13:02.652Z,0
2018-08-10T00:14:02.650Z,0
2018-08-10T00:15:02.652Z,0
2018-08-10T00:16:02.896Z,0
2018-08-10T00:17:02.134Z,0
2018-08-10T00:18:02.644Z,0
2018-08-10T00:19:02.903Z,0
2018-08-10T00:20:02.889Z,0
2018-08-10T00:21:02.379Z,0
2018-08-10T00:22:02.637Z,0
2018-08-10T00:23:02.881Z,0
2018-08-10T00:24:02.373Z,0
2018-08-10T00:25:02.623Z,0
2018-08-10T00:26:02.872Z,0
2018-08-10T00:27:02.113Z,0
2018-08-10T00:28:02.867Z,0
2018-08-10T00:29:02.620Z,0
2018-08-10T00:30:02.870Z,0
2018-08-10T00:31:02.863Z,0
2018-08-10T00:32:02.862Z,0
2018-08-10T00:33:02.862Z,0
2018-08-10T00:34:02.604Z,0
2018-08-10T00:35:02.854Z,0
2018-08-10T00:36:02.851Z,0
2018-08-10T00:37:02.343Z,0
2018-08-10T00:38:02.851Z,0
2018-08-10T00:39:02.845Z,0
2018-08-10T00:40:02.588Z,0
2018-08-10T00:41:02.337Z,0
2018-08-10T00:42:02.838Z,0
2018-08-10T00:43:02.329Z,0
2018-08-10T00:44:02.836Z,0
2018-08-10T00:45:02.581Z,0
2018-08-10T00:46:02.575Z,0
2018-08-10T00:47:02.573Z,0
2018-08-10T00:48:02.578Z,0
2018-08-10T00:49:02.568Z,0
2018-08-10T00:50:02.625Z,0
2018-08-10T00:51:02.568Z,0
2018-08-10T00:52:02.812Z,0
2018-08-10T00:53:02.816Z,0
2018-08-10T00:54:03.058Z,0
2018-08-10T00:55:02.554Z,0
2018-08-10T00:56:02.808Z,0
2018-08-10T00:57:02.802Z,0
2018-08-10T00:58:02.802Z,0
2018-08-10T00:59:02.798Z,0
2018-08-10T01:00:02.802Z,0
2018-08-10T01:01:02.803Z,0
2018-08-10T01:02:02.547Z,0
2018-08-10T01:03:02.822Z,0
2018-08-10T01:04:02.797Z,0
2018-08-10T01:05:02.532Z,0
2018-08-10T01:06:02.789Z,0
2018-08-10T01:07:02.779Z,0
2018-08-10T01:08:02.525Z,0
2018-08-10T01:09:02.769Z,0
2018-08-10T01:10:02.573Z,0
2018-08-10T01:11:02.522Z,0
2018-08-10T01:12:02.773Z,0
2018-08-10T01:13:02.516Z,0
2018-08-10T01:14:02.526Z,0
2018-08-10T01:15:02.761Z,0
2018-08-10T01:16:02.302Z,0
2018-08-10T01:17:02.508Z,0
2018-08-10T01:18:02.501Z,0
2018-08-10T01:19:02.627Z,0
2018-08-10T01:20:02.499Z,0
2018-08-10T01:21:02.746Z,0
2018-08-10T01:22:02.493Z,0
2018-08-10T01:23:02.743Z,0
2018-08-10T01:24:02.758Z,0
2018-08-10T01:25:02.281Z,0
2018-08-10T01:26:02.983Z,0
2018-08-10T01:27:02.482Z,0
2018-08-10T01:28:02.476Z,0
2018-08-10T01:29:03.129Z,0
2018-08-10T01:30:02.722Z,0
2018-08-10T01:31:02.465Z,0
2018-08-10T01:32:01.964Z,0
2018-08-10T01:33:02.718Z,0
2018-08-10T01:34:02.728Z,0
2018-08-10T01:35:02.723Z,0
2018-08-10T01:36:02.707Z,0
2018-08-10T01:37:02.451Z,0
2018-08-10T01:38:02.707Z,0
2018-08-10T01:39:02.705Z,0
2018-08-10T01:40:02.442Z,0
2018-08-10T01:41:02.700Z,0
2018-08-10T01:42:02.440Z,0
2018-08-10T01:43:02.710Z,0
2018-08-10T01:44:02.434Z,0
2018-08-10T01:45:02.703Z,0
2018-08-10T01:46:02.721Z,0
2018-08-10T01:47:02.687Z,0
2018-08-10T01:48:02.687Z,0
2018-08-10T01:49:02.679Z,0
2018-08-10T01:50:02.425Z,0
2018-08-10T01:51:02.417Z,0
2018-08-10T01:52:02.672Z,0
2018-08-10T01:53:02.684Z,0
2018-08-10T01:54:02.659Z,0
2018-08-10T01:55:01.649Z,0
2018-08-10T01:56:02.701Z,0
2018-08-10T01:57:02.920Z,0
2018-08-10T01:58:02.649Z,0
2018-08-10T01:59:02.647Z,0
2018-08-10T02:00:02.649Z,0
2018-08-10T02:01:02.410Z,0
2018-08-10T02:02:02.639Z,0
2018-08-10T02:03:02.637Z,0
2018-08-10T02:04:02.129Z,0
2018-08-10T02:05:02.637Z,0
2018-08-10T02:06:02.128Z,0
2018-08-10T02:07:02.162Z,0
2018-08-10T02:08:02.629Z,0
2018-08-10T02:09:02.621Z,0
2018-08-10T02:10:02.617Z,0
2018-08-10T02:11:02.113Z,0
2018-08-10T02:12:02.106Z,0
2018-08-10T02:13:02.610Z,0
2018-08-10T02:14:02.605Z,0
2018-08-10T02:15:02.608Z,0
2018-08-10T02:16:02.360Z,0
2018-08-10T02:17:02.597Z,0
2018-08-10T02:18:02.339Z,0
2018-08-10T02:19:02.600Z,0
2018-08-10T02:20:02.588Z,0
2018-08-10T02:21:02.633Z,0
2018-08-10T02:22:02.587Z,0
2018-08-10T02:23:02.578Z,0
2018-08-10T02:24:02.574Z,0
2018-08-10T02:25:02.581Z,0
2018-08-10T02:26:02.323Z,0
2018-08-10T02:27:02.573Z,0
2018-08-10T02:28:02.826Z,0
2018-08-10T02:29:02.314Z,0
2018-08-10T02:30:02.309Z,0
2018-08-10T02:31:02.327Z,0
2018-08-10T02:32:02.560Z,0
2018-08-10T02:33:02.556Z,0
2018-08-10T02:34:02.551Z,0
2018-08-10T02:35:02.316Z,0
2018-08-10T02:36:02.299Z,0
2018-08-10T02:37:02.546Z,0
2018-08-10T02:38:02.538Z,0
2018-08-10T02:39:02.537Z,0
2018-08-10T02:40:02.537Z,0
2018-08-10T02:41:02.548Z,0
2018-08-10T02:42:02.285Z,0
2018-08-10T02:43:02.540Z,0
2018-08-10T02:44:02.526Z,0
2018-08-10T02:45:02.527Z,0
2018-08-10T02:46:02.277Z,0
2018-08-10T02:47:02.264Z,0
2018-08-10T02:48:02.524Z,0
2018-08-10T02:49:02.508Z,0
2018-08-10T02:50:02.258Z,0
2018-08-10T02:51:02.504Z,0
2018-08-10T02:52:02.249Z,0
2018-08-10T02:53:02.242Z,0
2018-08-10T02:54:02.499Z,0
2018-08-10T02:55:02.500Z,0
2018-08-10T02:56:02.239Z,0
2018-08-10T02:57:01.984Z,0
2018-08-10T02:58:02.480Z,0
2018-08-10T02:59:02.747Z,0
2018-08-10T03:00:02.256Z,0
2018-08-10T03:01:01.716Z,0
2018-08-10T03:02:02.223Z,0
2018-08-10T03:03:02.220Z,0
2018-08-10T03:04:02.210Z,0
2018-08-10T03:05:01.963Z,0
2018-08-10T03:06:02.457Z,0
2018-08-10T03:07:01.957Z,0
2018-08-10T03:08:02.208Z,0
2018-08-10T03:09:01.695Z,0
2018-08-10T03:10:02.462Z,0
2018-08-10T03:11:02.200Z,0
2018-08-10T03:12:02.440Z,0
2018-08-10T03:13:02.234Z,0
2018-08-10T03:14:02.186Z,0
2018-08-10T03:15:02.179Z,0
2018-08-10T03:16:02.446Z,0
2018-08-10T03:17:01.920Z,0
2018-08-10T03:18:02.177Z,0
2018-08-10T03:19:02.432Z,0
2018-08-10T03:20:02.423Z,0
2018-08-10T03:21:02.424Z,0
2018-08-10T03:22:02.304Z,0
2018-08-10T03:23:02.525Z,0
2018-08-10T03:24:02.434Z,0
2018-08-10T03:25:02.410Z,0
2018-08-10T03:26:02.403Z,0
2018-08-10T03:27:01.896Z,0
2018-08-10T03:28:02.141Z,0
2018-08-10T03:29:02.404Z,0
2018-08-10T03:30:02.667Z,0
2018-08-10T03:31:02.391Z,0
2018-08-10T03:32:02.140Z,0
2018-08-10T03:33:02.380Z,0
2018-08-10T03:34:02.376Z,0
2018-08-10T03:35:01.871Z,0
2018-08-10T03:36:02.374Z,0
2018-08-10T03:37:02.366Z,0
2018-08-10T03:38:02.123Z,0
2018-08-10T03:39:02.361Z,0
2018-08-10T03:40:01.859Z,0
2018-08-10T03:41:02.357Z,0
2018-08-10T03:42:02.103Z,0
2018-08-10T03:43:02.355Z,0
2018-08-10T03:44:01.842Z,0
2018-08-10T03:45:02.103Z,0
2018-08-10T03:46:02.348Z,0
2018-08-10T03:47:02.337Z,5
2018-08-10T03:48:02.085Z,5
2018-08-10T03:49:02.331Z,5
2018-08-10T03:50:02.666Z,5
2018-08-10T03:51:02.082Z,5
2018-08-10T03:52:02.079Z,5
2018-08-10T03:53:02.110Z,5
2018-08-10T03:54:02.323Z,5
2018-08-10T03:55:02.071Z,5
2018-08-10T03:56:02.320Z,5
2018-08-10T03:57:02.312Z,5
2018-08-10T03:58:02.314Z,5
2018-08-10T03:59:02.059Z,5
2018-08-10T04:00:02.310Z,5
2018-08-10T04:01:02.315Z,5
2018-08-10T04:02:02.550Z,5
2018-08-10T04:03:02.305Z,5
2018-08-10T04:04:02.297Z,5
2018-08-10T04:05:02.291Z,10
2018-08-10T04:06:01.788Z,10
2018-08-10T04:07:02.033Z,10
2018-08-10T04:08:02.293Z,10
2018-08-10T04:09:02.310Z,10
2018-08-10T04:10:02.285Z,10
2018-08-10T04:11:02.279Z,15
2018-08-10T04:12:02.284Z,15
2018-08-10T04:13:02.018Z,15
2018-08-10T04:14:02.278Z,20
2018-08-10T04:15:02.016Z,20
2018-08-10T04:16:02.026Z,25
2018-08-10T04:17:02.261Z,25
2018-08-10T04:18:02.010Z,25
2018-08-10T04:19:02.011Z,25
2018-08-10T04:20:02.269Z,25
2018-08-10T04:21:02.260Z,25
2018-08-10T04:22:01.746Z,30
2018-08-10T04:23:02.257Z,30
2018-08-10T04:24:02.245Z,30
2018-08-10T04:25:02.241Z,35
2018-08-10T04:26:01.988Z,30
2018-08-10T04:27:02.241Z,30
2018-08-10T04:28:01.988Z,35
2018-08-10T04:29:01.985Z,35
2018-08-10T04:30:01.989Z,35
2018-08-10T04:31:02.231Z,35
2018-08-10T04:32:01.732Z,35
2018-08-10T04:33:02.482Z,40
2018-08-10T04:34:02.229Z,40
2018-08-10T04:35:02.219Z,45
2018-08-10T04:36:01.976Z,45
2018-08-10T04:37:01.722Z,40
2018-08-10T04:38:02.213Z,40
2018-08-10T04:39:01.963Z,35
2018-08-10T04:40:02.209Z,35
2018-08-10T04:41:01.705Z,40
2018-08-10T04:42:02.211Z,40
2018-08-10T04:43:02.206Z,40
2018-08-10T04:44:01.951Z,40
2018-08-10T04:45:01.946Z,35
2018-08-10T04:46:02.203Z,30
2018-08-10T04:47:01.945Z,30
2018-08-10T04:48:02.217Z,30
2018-08-10T04:49:01.940Z,25
2018-08-10T04:50:02.198Z,20
2018-08-10T04:51:02.193Z,20
2018-08-10T04:52:01.933Z,20
2018-08-10T04:53:01.931Z,20
2018-08-10T04:54:01.937Z,25
2018-08-10T04:55:02.270Z,25
2018-08-10T04:56:01.927Z,25
2018-08-10T04:57:02.180Z,30
2018-08-10T04:58:01.935Z,30
2018-08-10T04:59:02.170Z,30
2018-08-10T05:00:02.180Z,30
2018-08-10T05:01:01.919Z,25
2018-08-10T05:02:02.166Z,25
2018-08-10T05:03:01.660Z,30
2018-08-10T05:04:02.174Z,30
2018-08-10T05:05:01.922Z,30
2018-08-10T05:06:02.158Z,30
2018-08-10T05:07:01.920Z,35
2018-08-10T05:08:01.906Z,35
2018-08-10T05:09:02.160Z,35
2018-08-10T05:10:02.317Z,40
2018-08-10T05:11:02.164Z,40
2018-08-10T05:12:02.189Z,40
2018-08-10T05:13:01.900Z,40
2018-08-10T05:14:01.430Z,40
2018-08-10T05:15:01.905Z,45
2018-08-10T05:16:01.642Z,50
2018-08-10T05:17:02.137Z,55
2018-08-10T05:18:02.135Z,60
2018-08-10T05:19:02.141Z,65
2018-08-10T05:20:02.140Z,65
2018-08-10T05:21:01.628Z,75
2018-08-10T05:22:01.892Z,85
2018-08-10T05:23:01.872Z,90
2018-08-10T05:24:01.877Z,90
2018-08-10T05:25:02.133Z,95
2018-08-10T05:26:02.505Z,95
2018-08-10T05:27:01.877Z,90
2018-08-10T05:28:01.867Z,80
2018-08-10T05:29:01.867Z,75
2018-08-10T05:30:01.867Z,75
2018-08-10T05:31:01.868Z,75
2018-08-10T05:32:01.866Z,75
2018-08-10T05:33:01.854Z,80
2018-08-10T05:34:01.853Z,80
2018-08-10T05:35:02.789Z,85
2018-08-10T05:36:02.110Z,90
2018-08-10T05:37:01.604Z,90
2018-08-10T05:38:01.852Z,90
2018-08-10T05:39:02.109Z,90
2018-08-10T05:40:02.107Z,90
2018-08-10T05:41:01.843Z,90
2018-08-10T05:42:02.104Z,100
2018-08-10T05:43:02.087Z,110
2018-08-10T05:44:02.170Z,125
2018-08-10T05:45:02.090Z,125
2018-08-10T05:46:02.092Z,130
2018-08-10T05:47:01.880Z,125
2018-08-10T05:48:02.341Z,120
2018-08-10T05:49:02.097Z,130
2018-08-10T05:50:01.958Z,135
2018-08-10T05:51:02.491Z,145
2018-08-10T05:52:01.829Z,160
2018-08-10T05:53:02.077Z,170
2018-08-10T05:54:02.075Z,185
2018-08-10T05:55:01.318Z,190
2018-08-10T05:56:02.076Z,195
2018-08-10T05:57:01.818Z,170
2018-08-10T05:58:01.567Z,145
2018-08-10T05:59:01.828Z,150
2018-08-10T06:00:01.830Z,165
2018-08-10T06:01:02.080Z,150
2018-08-10T06:02:01.818Z,135
2018-08-10T06:03:01.824Z,130
2018-08-10T06:04:03.551Z,120
2018-08-10T06:05:02.068Z,110
2018-08-10T06:06:02.321Z,105
2018-08-10T06:07:01.812Z,110
2018-08-10T06:08:01.826Z,85
2018-08-10T06:09:02.061Z,90
2018-08-10T06:10:01.810Z,95
2018-08-10T06:11:02.068Z,90
2018-08-10T06:12:01.802Z,90
2018-08-10T06:13:01.810Z,90
2018-08-10T06:14:01.802Z,85
2018-08-10T06:15:01.296Z,105
2018-08-10T06:16:02.055Z,110
2018-08-10T06:17:01.808Z,170
2018-08-10T06:18:02.048Z,250
2018-08-10T06:19:02.052Z,250
2018-08-10T06:20:02.216Z,180
2018-08-10T06:21:01.804Z,150
2018-08-10T06:22:01.799Z,165
2018-08-10T06:23:02.545Z,145
2018-08-10T06:24:02.053Z,130
2018-08-10T06:25:01.701Z,145
2018-08-10T06:26:02.040Z,145
2018-08-10T06:27:02.046Z,140
2018-08-10T06:28:02.443Z,135
2018-08-10T06:29:02.047Z,105
2018-08-10T06:30:02.070Z,80
2018-08-10T06:31:02.044Z,60
2018-08-10T06:32:02.048Z,60
2018-08-10T06:33:02.051Z,65
2018-08-10T06:34:02.386Z,70
2018-08-10T06:35:01.784Z,70
2018-08-10T06:36:01.541Z,70
2018-08-10T06:37:02.294Z,50
2018-08-10T06:38:02.037Z,45
2018-08-10T06:39:02.038Z,40
2018-08-10T06:40:02.066Z,45
2018-08-10T06:41:01.794Z,65
2018-08-10T06:42:01.783Z,105
2018-08-10T06:43:01.529Z,130
2018-08-10T06:44:02.030Z,125
2018-08-10T06:45:03.020Z,125
2018-08-10T06:46:01.523Z,115
2018-08-10T06:47:01.777Z,105
2018-08-10T06:48:01.781Z,90
2018-08-10T06:49:01.774Z,100
2018-08-10T06:50:01.777Z,115
2018-08-10T06:51:02.067Z,115
2018-08-10T06:52:01.773Z,115
2018-08-10T06:53:01.788Z,110
2018-08-10T06:54:01.774Z,110
2018-08-10T06:55:02.020Z,115
2018-08-10T06:56:02.533Z,120
2018-08-10T06:57:01.853Z,125
2018-08-10T06:58:02.022Z,125
2018-08-10T06:59:02.065Z,115
2018-08-10T07:00:02.013Z,110
2018-08-10T07:01:02.161Z,110
2018-08-10T07:02:02.031Z,115
2018-08-10T07:03:02.016Z,165
2018-08-10T07:04:02.014Z,195
2018-08-10T07:05:01.827Z,200
2018-08-10T07:06:02.009Z,200
2018-08-10T07:07:01.751Z,190
2018-08-10T07:08:02.724Z,175
2018-08-10T07:09:01.746Z,195
2018-08-10T07:10:01.750Z,215
2018-08-10T07:11:02.030Z,225
2018-08-10T07:12:02.016Z,225
2018-08-10T07:13:01.903Z,230
2018-08-10T07:14:01.995Z,230
2018-08-10T07:15:02.005Z,235
2018-08-10T07:16:01.745Z,240
2018-08-10T07:17:01.495Z,250
2018-08-10T07:18:01.989Z,275
2018-08-10T07:19:01.994Z,335
2018-08-10T07:20:02.006Z,405
2018-08-10T07:21:01.986Z,495
2018-08-10T07:22:01.740Z,515
2018-08-10T07:23:01.483Z,535
2018-08-10T07:24:01.737Z,550
2018-08-10T07:25:01.982Z,550
2018-08-10T07:26:01.980Z,520
2018-08-10T07:27:02.125Z,460
2018-08-10T07:28:01.981Z,410
2018-08-10T07:29:02.005Z,365
2018-08-10T07:30:01.986Z,340
2018-08-10T07:31:01.736Z,325
2018-08-10T07:32:01.989Z,305
2018-08-10T07:33:01.978Z,300
2018-08-10T07:34:01.988Z,300
2018-08-10T07:35:01.726Z,295
2018-08-10T07:36:01.980Z,285
2018-08-10T07:37:01.733Z,280
2018-08-10T07:38:01.475Z,280
2018-08-10T07:39:01.974Z,290
2018-08-10T07:40:01.722Z,300
2018-08-10T07:41:01.982Z,315
2018-08-10T07:42:01.470Z,340
2018-08-10T07:43:01.977Z,385
2018-08-10T07:44:01.725Z,435
2018-08-10T07:45:01.733Z,440
2018-08-10T07:46:01.992Z,430
2018-08-10T07:47:01.474Z,415
2018-08-10T07:48:01.473Z,400
2018-08-10T07:49:01.974Z,395
2018-08-10T07:50:01.727Z,400
2018-08-10T07:51:01.720Z,390
2018-08-10T07:52:02.064Z,385
2018-08-10T07:53:01.721Z,375
2018-08-10T07:54:01.975Z,380
2018-08-10T07:55:01.976Z,395
2018-08-10T07:56:01.975Z,390
2018-08-10T07:57:01.973Z,375
2018-08-10T07:58:01.980Z,370
2018-08-10T07:59:02.305Z,395
2018-08-10T08:00:01.980Z,425
2018-08-10T08:01:01.470Z,430
2018-08-10T08:02:01.987Z,450
2018-08-10T08:03:01.723Z,445
2018-08-10T08:04:01.723Z,415
2018-08-10T08:05:01.971Z,385
2018-08-10T08:06:02.076Z,370
2018-08-10T08:07:02.067Z,360
2018-08-10T08:08:02.082Z,360
2018-08-10T08:09:01.771Z,360
2018-08-10T08:10:01.972Z,365
2018-08-10T08:11:02.228Z,370
2018-08-10T08:12:01.724Z,370
2018-08-10T08:13:01.984Z,370
2018-08-10T08:14:01.991Z,390
2018-08-10T08:15:01.475Z,405
2018-08-10T08:16:01.974Z,420
2018-08-10T08:17:01.734Z,465
2018-08-10T08:18:02.246Z,490
2018-08-10T08:19:01.988Z,505
2018-08-10T08:20:02.462Z,520
2018-08-10T08:21:01.979Z,540
2018-08-10T08:22:01.721Z,560
2018-08-10T08:23:01.975Z,600
2018-08-10T08:24:01.979Z,635
2018-08-10T08:25:01.971Z,660
2018-08-10T08:26:01.982Z,665
2018-08-10T08:27:01.799Z,685
2018-08-10T08:28:01.984Z,695
2018-08-10T08:29:01.995Z,695
2018-08-10T08:30:01.750Z,730
2018-08-10T08:31:01.475Z,850
2018-08-10T08:32:01.730Z,805
2018-08-10T08:33:01.477Z,800
2018-08-10T08:34:01.728Z,865
2018-08-10T08:35:02.667Z,770
2018-08-10T08:36:01.746Z,765
2018-08-10T08:37:01.757Z,815
2018-08-10T08:38:01.991Z,755
2018-08-10T08:39:01.747Z,700
2018-08-10T08:40:01.491Z,665
2018-08-10T08:41:02.042Z,630
2018-08-10T08:42:01.993Z,620
2018-08-10T08:43:01.997Z,615
2018-08-10T08:44:02.003Z,620
2018-08-10T08:45:01.501Z,640
2018-08-10T08:46:03.174Z,625
2018-08-10T08:47:02.015Z,615
2018-08-10T08:49:01.760Z,670
2018-08-10T08:50:02.145Z,660
2018-08-10T08:51:01.768Z,640
2018-08-10T08:52:01.564Z,610
2018-08-10T08:53:01.522Z,615
2018-08-10T08:54:01.355Z,635
2018-08-10T08:55:01.273Z,665
2018-08-10T08:56:02.030Z,700
2018-08-10T08:57:01.528Z,695
2018-08-10T08:58:01.793Z,700
2018-08-10T08:59:02.045Z,690
2018-08-10T09:00:02.085Z,695
2018-08-10T09:01:01.798Z,690
2018-08-10T09:02:01.802Z,670
2018-08-10T09:03:01.550Z,610
2018-08-10T09:04:02.064Z,550
2018-08-10T09:05:01.809Z,615
2018-08-10T09:06:02.065Z,680
2018-08-10T09:07:01.563Z,700
2018-08-10T09:08:01.574Z,675
2018-08-10T09:09:01.883Z,655
2018-08-10T09:10:02.233Z,660
2018-08-10T09:11:01.581Z,670
2018-08-10T09:12:02.091Z,665
2018-08-10T09:13:01.842Z,645
2018-08-10T09:14:01.839Z,640
2018-08-10T09:15:01.595Z,635
2018-08-10T09:16:01.851Z,625
2018-08-10T09:17:02.264Z,620
2018-08-10T09:18:01.865Z,570
2018-08-10T09:19:02.110Z,500
2018-08-10T09:20:01.868Z,490
2018-08-10T09:21:01.875Z,465
2018-08-10T09:22:01.880Z,485
2018-08-10T09:23:01.371Z,460
2018-08-10T09:24:01.885Z,440
2018-08-10T09:25:02.140Z,475
2018-08-10T09:26:01.886Z,475
2018-08-10T09:27:02.278Z,445
2018-08-10T09:28:02.158Z,420
2018-08-10T09:29:02.148Z,450
2018-08-10T09:30:01.900Z,485
2018-08-10T09:31:01.904Z,490
2018-08-10T09:32:02.159Z,520
2018-08-10T09:33:01.924Z,550
2018-08-10T09:34:02.164Z,590
2018-08-10T09:35:02.166Z,585
2018-08-10T09:36:02.183Z,590
2018-08-10T09:37:01.671Z,585
2018-08-10T09:38:02.175Z,590
2018-08-10T09:39:02.189Z,580
2018-08-10T09:40:02.189Z,570
2018-08-10T09:41:01.944Z,585
2018-08-10T09:42:01.494Z,585
2018-08-10T09:43:02.194Z,590
2018-08-10T09:44:01.942Z,580
2018-08-10T09:45:02.214Z,575
2018-08-10T09:46:01.959Z,560
2018-08-10T09:47:01.956Z,560
2018-08-10T09:48:12.230Z,585
2018-08-10T09:49:01.711Z,605
2018-08-10T09:50:01.969Z,605
2018-08-10T09:51:01.968Z,570
2018-08-10T09:52:02.279Z,550
2018-08-10T09:53:01.996Z,565
2018-08-10T09:54:01.979Z,630
2018-08-10T09:55:01.790Z,680
2018-08-10T09:56:01.988Z,700
2018-08-10T09:57:01.987Z,700
2018-08-10T09:58:02.317Z,715
2018-08-10T09:59:01.745Z,740
2018-08-10T10:00:02.752Z,755
2018-08-10T10:01:02.255Z,745
2018-08-10T10:02:02.255Z,655
2018-08-10T10:03:02.264Z,600
2018-08-10T10:04:02.014Z,585
2018-08-10T10:05:02.267Z,590
2018-08-10T10:06:02.276Z,570
2018-08-10T10:07:02.277Z,655
2018-08-10T10:08:02.311Z,705
2018-08-10T10:09:02.224Z,655
2018-08-10T10:10:02.289Z,665
2018-08-10T10:11:02.292Z,655
2018-08-10T10:12:02.055Z,645
2018-08-10T10:13:02.311Z,670
2018-08-10T10:14:02.360Z,645
2018-08-10T10:15:02.310Z,700
2018-08-10T10:16:02.314Z,785
2018-08-10T10:17:02.326Z,720
2018-08-10T10:18:01.568Z,635
2018-08-10T10:19:02.326Z,595
2018-08-10T10:20:01.828Z,620
2018-08-10T10:21:02.570Z,625
2018-08-10T10:22:01.842Z,660
2018-08-10T10:23:02.356Z,700
2018-08-10T10:24:01.849Z,770
2018-08-10T10:25:01.849Z,745
2018-08-10T10:26:02.111Z,725
2018-08-10T10:27:02.117Z,715
2018-08-10T10:28:01.864Z,680
2018-08-10T10:29:02.384Z,625
2018-08-10T10:30:02.139Z,595
2018-08-10T10:31:02.388Z,605
2018-08-10T10:32:02.136Z,635
2018-08-10T10:33:02.413Z,650
2018-08-10T10:34:02.153Z,615
2018-08-10T10:35:01.902Z,595
2018-08-10T10:36:02.161Z,595
2018-08-10T10:37:02.162Z,585
2018-08-10T10:38:02.423Z,550
2018-08-10T10:39:02.427Z,535
2018-08-10T10:40:02.185Z,505
2018-08-10T10:41:02.437Z,520
2018-08-10T10:42:02.197Z,580
2018-08-10T10:43:02.449Z,615
2018-08-10T10:44:02.202Z,650
2018-08-10T10:45:01.954Z,705
2018-08-10T10:46:02.209Z,760
2018-08-10T10:47:02.522Z,750
2018-08-10T10:48:02.484Z,735
2018-08-10T10:49:02.227Z,735
2018-08-10T10:50:01.980Z,735
2018-08-10T10:51:02.244Z,730
2018-08-10T10:52:01.995Z,735
2018-08-10T10:53:02.509Z,750
2018-08-10T10:54:02.505Z,725
2018-08-10T10:55:02.259Z,730
2018-08-10T10:56:02.012Z,730
2018-08-10T10:57:02.573Z,740
2018-08-10T10:58:02.532Z,750
2018-08-10T10:59:17.459Z,695
2018-08-10T11:00:02.299Z,650
2018-08-10T11:01:02.560Z,630
2018-08-10T11:02:02.578Z,630
2018-08-10T11:03:02.563Z,640
2018-08-10T11:04:02.316Z,665
2018-08-10T11:05:02.315Z,680
2018-08-10T11:06:02.072Z,650
2018-08-10T11:07:02.330Z,625
2018-08-10T11:08:02.596Z,585
2018-08-10T11:09:02.592Z,545
2018-08-10T11:10:02.350Z,550
2018-08-10T11:11:02.356Z,595
2018-08-10T11:12:01.849Z,620
2018-08-10T11:13:02.365Z,600
2018-08-10T11:14:02.618Z,580
2018-08-10T11:15:02.623Z,580
2018-08-10T11:16:02.390Z,615
2018-08-10T11:17:02.382Z,660
2018-08-10T11:18:02.906Z,670
2018-08-10T11:19:02.399Z,700
2018-08-10T11:20:02.656Z,705
2018-08-10T11:21:02.404Z,705
2018-08-10T11:22:02.437Z,680
2018-08-10T11:23:02.676Z,650
2018-08-10T11:24:02.601Z,620
2018-08-10T11:25:02.450Z,610
2018-08-10T11:26:02.766Z,625
2018-08-10T11:27:02.692Z,640
2018-08-10T11:28:02.458Z,645
2018-08-10T11:29:02.446Z,645
2018-08-10T11:30:02.460Z,645
2018-08-10T11:31:02.765Z,645
2018-08-10T11:32:03.110Z,665
2018-08-10T11:33:02.474Z,695
2018-08-10T11:34:02.483Z,665
2018-08-10T11:35:02.484Z,645
2018-08-10T11:36:02.487Z,635
2018-08-10T11:37:02.490Z,615
2018-08-10T11:38:02.750Z,630
2018-08-10T11:39:02.752Z,665
2018-08-10T11:40:02.512Z,685
2018-08-10T11:41:02.805Z,675
2018-08-10T11:42:02.523Z,640
2018-08-10T11:43:02.533Z,600
2018-08-10T11:44:02.527Z,565
2018-08-10T11:45:03.132Z,520
2018-08-10T11:46:02.536Z,465
2018-08-10T11:47:02.794Z,440
2018-08-10T11:48:02.807Z,450
2018-08-10T11:49:02.559Z,455
2018-08-10T11:50:03.016Z,440
2018-08-10T11:51:02.565Z,420
2018-08-10T11:52:02.585Z,400
2018-08-10T11:53:02.848Z,395
2018-08-10T11:54:02.583Z,390
2018-08-10T11:55:02.839Z,405
2018-08-10T11:56:02.839Z,400
2018-08-10T11:57:02.364Z,395
2018-08-10T11:58:02.865Z,385
2018-08-10T11:59:02.607Z,375
2018-08-10T12:00:02.939Z,370
2018-08-10T12:01:02.879Z,360
2018-08-10T12:02:02.696Z,350
2018-08-10T12:03:02.881Z,345
2018-08-10T12:04:02.888Z,350
2018-08-10T12:05:02.642Z,360
2018-08-10T12:06:03.665Z,355
2018-08-10T12:07:02.433Z,355
2018-08-10T12:08:02.690Z,350
2018-08-10T12:09:02.901Z,325
2018-08-10T12:10:02.905Z,320
2018-08-10T12:11:02.910Z,340
2018-08-10T12:12:02.662Z,365
2018-08-10T12:13:03.227Z,335
2018-08-10T12:14:02.669Z,325
2018-08-10T12:15:02.673Z,330
2018-08-10T12:16:02.678Z,340
2018-08-10T12:17:02.927Z,350
2018-08-10T12:18:02.429Z,365
2018-08-10T12:19:02.816Z,370
2018-08-10T12:20:02.941Z,345
2018-08-10T12:21:02.700Z,350
2018-08-10T12:22:02.693Z,360
2018-08-10T12:23:02.715Z,405
2018-08-10T12:24:02.701Z,460
2018-08-10T12:25:02.711Z,510
2018-08-10T12:26:02.971Z,545
2018-08-10T12:27:02.755Z,475
2018-08-10T12:28:02.965Z,405
2018-08-10T12:29:02.970Z,370
2018-08-10T12:30:02.984Z,355
2018-08-10T12:31:03.027Z,370
2018-08-10T12:32:02.735Z,380
2018-08-10T12:33:02.488Z,395
2018-08-10T12:34:03.031Z,395
2018-08-10T12:35:02.990Z,395
2018-08-10T12:36:03.307Z,390
2018-08-10T12:37:02.745Z,390
2018-08-10T12:38:03.403Z,390
2018-08-10T12:39:03.000Z,390
2018-08-10T12:40:02.751Z,375
2018-08-10T12:41:03.011Z,355
2018-08-10T12:42:02.771Z,340
2018-08-10T12:43:03.032Z,330
2018-08-10T12:44:03.020Z,320
2018-08-10T12:45:02.772Z,315
2018-08-10T12:46:02.779Z,320
2018-08-10T12:47:03.032Z,330
2018-08-10T12:48:02.781Z,330
2018-08-10T12:49:03.034Z,325
2018-08-10T12:50:03.042Z,320
2018-08-10T12:51:03.043Z,340
2018-08-10T12:52:03.046Z,365
2018-08-10T12:53:02.554Z,370
2018-08-10T12:54:02.809Z,365
2018-08-10T12:55:02.804Z,365
2018-08-10T12:56:03.058Z,365
2018-08-10T12:57:03.004Z,385
2018-08-10T12:58:03.074Z,420
2018-08-10T12:59:02.821Z,490
2018-08-10T13:00:03.076Z,495
2018-08-10T13:01:03.075Z,465
2018-08-10T13:02:02.575Z,440
2018-08-10T13:03:03.949Z,400
2018-08-10T13:04:03.087Z,370
2018-08-10T13:05:03.091Z,345
2018-08-10T13:06:02.593Z,320
2018-08-10T13:07:02.843Z,305
2018-08-10T13:08:02.852Z,285
2018-08-10T13:09:03.117Z,280
2018-08-10T13:10:03.112Z,285
2018-08-10T13:11:03.110Z,300
2018-08-10T13:12:03.140Z,310
2018-08-10T13:13:02.868Z,305
2018-08-10T13:14:02.868Z,330
2018-08-10T13:15:03.127Z,350
2018-08-10T13:16:02.877Z,370
2018-08-10T13:17:03.141Z,365
2018-08-10T13:18:02.887Z,330
2018-08-10T13:19:03.133Z,325
2018-08-10T13:20:03.144Z,335
2018-08-10T13:21:03.154Z,340
2018-08-10T13:22:03.144Z,335
2018-08-10T13:23:02.648Z,335
2018-08-10T13:24:03.599Z,365
2018-08-10T13:25:03.154Z,425
2018-08-10T13:26:03.166Z,450
2018-08-10T13:27:03.165Z,420
2018-08-10T13:28:03.167Z,390
2018-08-10T13:29:02.661Z,360
2018-08-10T13:30:03.174Z,345
2018-08-10T13:31:02.920Z,355
2018-08-10T13:32:02.929Z,345
2018-08-10T13:33:02.933Z,330
2018-08-10T13:34:02.931Z,355
2018-08-10T13:35:02.938Z,415
2018-08-10T13:36:02.941Z,425
2018-08-10T13:37:03.191Z,435
2018-08-10T13:38:03.202Z,460
2018-08-10T13:39:03.195Z,425
2018-08-10T13:40:02.953Z,400
2018-08-10T13:41:03.744Z,360
2018-08-10T13:42:03.290Z,300
2018-08-10T13:43:02.960Z,285
2018-08-10T13:44:02.961Z,295
2018-08-10T13:45:02.971Z,305
2018-08-10T13:46:03.232Z,315
2018-08-10T13:47:03.239Z,305
2018-08-10T13:48:02.719Z,285
2018-08-10T13:49:03.229Z,265
2018-08-10T13:50:02.983Z,275
2018-08-10T13:51:02.984Z,270
2018-08-10T13:52:02.997Z,300
2018-08-10T13:53:02.986Z,325
2018-08-10T13:54:02.995Z,330
2018-08-10T13:55:03.003Z,355
2018-08-10T13:56:02.999Z,395
2018-08-10T13:57:03.252Z,405
2018-08-10T13:58:03.018Z,400
2018-08-10T13:59:03.261Z,385
2018-08-10T14:00:03.289Z,410
2018-08-10T14:01:03.270Z,415
2018-08-10T14:02:03.274Z,420
2018-08-10T14:03:03.269Z,430
2018-08-10T14:04:03.276Z,420
2018-08-10T14:05:03.034Z,400
2018-08-10T14:06:03.378Z,380
2018-08-10T14:07:03.287Z,390